Time;durP1;ratioP1;P1;durP2;ratioP2;P2;SDS_P1;SDS_P2;PMS_P1;PMS_P2;Temp;Humidity;BMP_temperature;BMP_pressure;BME280_temperature;BME280_humidity;BME280_pressure;Samples;Min_cycle;Max_cycle;Signal;HPM_P1;HPM_P2
2021/09/18 00:00:53;;;;;;;;;;;;;;;19.62;59.83;100198.44;5115845;28;1987;-56
2021/09/18 00:03:18;;;;;;;;;;;;;;;19.88;60.07;100186.06;5115612;28;978;-55
2021/09/18 00:05:44;;;;;;;;;;;;;;;20.10;60.26;100166.78;5115447;28;806;-52
2021/09/18 00:08:09;;;;;;;;;;;;;;;20.16;60.69;100176.59;5114793;27;985;-55
2021/09/18 00:10:34;;;;;;;;;;;;;;;20.25;60.94;100154.56;5115848;28;771;-54
2021/09/18 00:13:00;;;;;;;;;;;;;;;20.38;61.07;100158.38;5115766;28;700;-56
2021/09/18 00:15:27;;;;;;;;;;;;;;;20.54;60.96;100167.09;5115396;28;1093;-54
2021/09/18 00:17:53;;;;;;;;;;;;;;;20.48;60.96;100171.13;5114310;27;1443;-54
2021/09/18 00:20:19;;;;;;;;;;;;;;;20.40;59.53;100180.97;5115393;27;1975;-56
2021/09/18 00:22:44;;;;;;;;;;;;;;;20.03;56.79;100177.44;5117936;27;1580;-52
2021/09/18 00:25:10;;;;;;;;;;;;;;;19.51;53.87;100176.91;5115718;28;777;-53
2021/09/18 00:27:35;;;;;;;;;;;;;;;18.95;51.43;100165.88;5115133;28;808;-52
2021/09/18 00:30:01;;;;;;;;;;;;;;;18.62;49.20;100168.63;5115696;28;783;-57
2021/09/18 00:32:26;;;;;;;;;;;;;;;18.20;48.44;100173.19;5115616;28;893;-54
2021/09/18 00:34:51;;;;;;;;;;;;;;;18.47;50.96;100169.72;5115190;28;818;-55
2021/09/18 00:37:17;;;;;;;;;;;;;;;18.92;54.41;100161.00;5120394;27;1061;-55
2021/09/18 00:39:42;;;;;;;;;;;;;;;19.27;56.57;100167.72;5135811;27;763;-55
2021/09/18 00:42:08;;;;;;;;;;;;;;;19.42;58.24;100169.38;5135475;27;1909;-55
2021/09/18 00:44:33;;;;;;;;;;;;;;;19.58;59.38;100177.31;5136166;27;874;-57
2021/09/18 00:46:58;;;;;;;;;;;;;;;19.78;60.08;100176.03;5138899;27;798;-55
2021/09/18 00:49:24;;;;;;;;;;;;;;;19.99;60.13;100166.22;5139312;27;722;-55
2021/09/18 00:51:49;;;;;;;;;;;;;;;20.08;60.76;100162.72;5131815;27;960;-56
2021/09/18 00:54:15;;;;;;;;;;;;;;;20.26;60.88;100163.66;5118575;28;844;-55
2021/09/18 00:56:41;;;;;;;;;;;;;;;20.34;60.96;100169.25;5118877;28;743;-55
2021/09/18 00:59:06;;;;;;;;;;;;;;;20.53;60.80;100168.22;5119043;28;787;-55
2021/09/18 01:01:35;;;;;;;;;;;;;;;20.51;61.27;100163.03;5119116;28;1963;-56
2021/09/18 01:04:00;;;;;;;;;;;;;;;20.51;60.48;100154.75;5118795;28;846;-56
2021/09/18 01:06:28;;;;;;;;;;;;;;;20.08;58.42;100152.47;5118715;27;930;-55
2021/09/18 01:08:53;;;;;;;;;;;;;;;19.67;56.00;100156.16;5119026;28;842;-56
2021/09/18 01:11:22;;;;;;;;;;;;;;;19.34;53.38;100148.03;5118498;27;739;-56
2021/09/18 01:13:50;;;;;;;;;;;;;;;19.02;51.65;100152.50;5118993;27;1089;-53
2021/09/18 01:16:15;;;;;;;;;;;;;;;18.80;50.13;100145.75;5139521;27;1587;-55
2021/09/18 01:18:44;;;;;;;;;;;;;;;18.45;49.81;100148.00;5137632;27;834;-53
2021/09/18 01:21:10;;;;;;;;;;;;;;;18.49;50.95;100145.47;5133706;27;1909;-54
2021/09/18 01:23:35;;;;;;;;;;;;;;;18.89;53.87;100145.06;5119219;28;798;-55
2021/09/18 01:26:01;;;;;;;;;;;;;;;19.17;56.36;100145.06;5118791;28;770;-57
2021/09/18 01:28:26;;;;;;;;;;;;;;;19.45;58.11;100145.88;5118700;28;822;-56
2021/09/18 01:30:52;;;;;;;;;;;;;;;19.70;58.89;100144.50;5118345;28;846;-55
2021/09/18 01:33:17;;;;;;;;;;;;;;;19.87;59.73;100143.06;5117976;28;815;-55
2021/09/18 01:35:43;;;;;;;;;;;;;;;19.94;60.28;100141.50;5118811;28;735;-54
2021/09/18 01:38:08;;;;;;;;;;;;;;;19.99;60.96;100143.31;5130907;27;1012;-54
2021/09/18 01:40:35;;;;;;;;;;;;;;;20.30;60.51;100148.09;5138974;27;1910;-55
2021/09/18 01:43:00;;;;;;;;;;;;;;;20.39;60.79;100156.44;5139367;27;816;-56
2021/09/18 01:45:27;;;;;;;;;;;;;;;20.43;60.66;100158.25;5138821;27;759;-56
2021/09/18 01:47:57;;;;;;;;;;;;;;;20.17;58.87;100158.91;5138520;27;738;-56
2021/09/18 01:50:25;;;;;;;;;;;;;;;19.67;55.80;100151.44;5138912;27;813;-54
2021/09/18 01:52:51;;;;;;;;;;;;;;;19.14;52.84;100147.31;5121983;27;973;-56
2021/09/18 01:55:17;;;;;;;;;;;;;;;18.57;50.73;100143.97;5119473;27;1154;-54
2021/09/18 01:57:46;;;;;;;;;;;;;;;18.33;48.78;100133.91;5137530;27;790;-53
2021/09/18 02:00:12;;;;;;;;;;;;;;;18.20;48.85;100140.16;5138312;27;1918;-53
2021/09/18 02:02:38;;;;;;;;;;;;;;;18.55;51.98;100140.69;5138581;27;830;-53
2021/09/18 02:05:04;;;;;;;;;;;;;;;18.93;54.84;100141.41;5138917;27;771;-55
2021/09/18 02:07:29;;;;;;;;;;;;;;;19.24;56.88;100145.50;5124696;27;1040;-55
2021/09/18 02:09:55;;;;;;;;;;;;;;;19.35;58.60;100152.44;5117496;28;759;-53
2021/09/18 02:12:23;;;;;;;;;;;;;;;19.61;59.36;100165.66;5117714;28;791;-54
2021/09/18 02:14:48;;;;;;;;;;;;;;;19.74;60.25;100162.06;5117672;28;1231;-55
2021/09/18 02:17:14;;;;;;;;;;;;;;;20.04;60.11;100161.72;5117687;28;861;-55
2021/09/18 02:19:39;;;;;;;;;;;;;;;20.21;60.26;100159.06;5117712;28;869;-54
2021/09/18 02:22:05;;;;;;;;;;;;;;;20.26;60.60;100164.47;5119789;27;1984;-54
2021/09/18 02:24:30;;;;;;;;;;;;;;;20.29;61.34;100157.53;5117307;27;781;-54
2021/09/18 02:26:55;;;;;;;;;;;;;;;20.49;60.92;100170.78;5117953;28;778;-53
2021/09/18 02:29:21;;;;;;;;;;;;;;;20.48;61.06;100171.13;5117512;28;823;-57
2021/09/18 02:31:46;;;;;;;;;;;;;;;20.38;59.29;100172.19;5116968;28;790;-52
2021/09/18 02:34:12;;;;;;;;;;;;;;;19.87;56.81;100168.69;5117565;28;842;-57
2021/09/18 02:36:37;;;;;;;;;;;;;;;19.33;54.22;100160.16;5116910;27;950;-55
2021/09/18 02:39:02;;;;;;;;;;;;;;;18.91;51.72;100168.41;5137492;27;1176;-57
2021/09/18 02:41:28;;;;;;;;;;;;;;;18.44;49.92;100173.91;5137769;27;1909;-52
2021/09/18 02:43:53;;;;;;;;;;;;;;;18.19;48.79;100174.28;5137758;27;782;-54
2021/09/18 02:46:19;;;;;;;;;;;;;;;18.42;51.76;100175.31;5138274;27;758;-54
2021/09/18 02:48:44;;;;;;;;;;;;;;;18.89;54.76;100167.09;5137837;27;735;-54
2021/09/18 02:51:09;;;;;;;;;;;;;;;19.23;56.82;100168.66;5135503;27;1096;-52
2021/09/18 02:53:35;;;;;;;;;;;;;;;19.48;58.11;100150.78;5117297;28;737;-52
2021/09/18 02:56:02;;;;;;;;;;;;;;;19.66;59.24;100158.09;5117022;28;747;-55
2021/09/18 02:58:27;;;;;;;;;;;;;;;19.72;60.29;100156.03;5117183;28;754;-54
2021/09/18 03:00:53;;;;;;;;;;;;;;;20.08;60.06;100151.69;5117302;28;1978;-56
2021/09/18 03:03:18;;;;;;;;;;;;;;;20.06;60.89;100153.91;5115891;28;755;-53
2021/09/18 03:05:43;;;;;;;;;;;;;;;20.16;60.97;100150.91;5117315;27;826;-54
2021/09/18 03:08:09;;;;;;;;;;;;;;;20.42;60.76;100151.09;5116494;27;1004;-56
2021/09/18 03:10:34;;;;;;;;;;;;;;;20.39;61.14;100154.50;5116495;28;827;-53
2021/09/18 03:13:00;;;;;;;;;;;;;;;20.43;61.18;100149.97;5116540;28;834;-53
2021/09/18 03:15:25;;;;;;;;;;;;;;;20.37;59.93;100151.25;5116237;28;1007;-60
2021/09/18 03:17:50;;;;;;;;;;;;;;;19.91;57.61;100141.28;5117005;28;751;-55
2021/09/18 03:20:16;;;;;;;;;;;;;;;19.39;54.84;100138.81;5116418;28;1987;-56
2021/09/18 03:22:41;;;;;;;;;;;;;;;19.07;51.97;100146.91;5119103;27;1637;-56
2021/09/18 03:25:07;;;;;;;;;;;;;;;18.57;49.86;100143.97;5116126;28;826;-56
2021/09/18 03:27:33;;;;;;;;;;;;;;;18.22;48.54;100135.19;5116118;28;763;-59
2021/09/18 03:29:58;;;;;;;;;;;;;;;18.25;49.25;100146.41;5116068;28;803;-58
2021/09/18 03:32:24;;;;;;;;;;;;;;;18.62;52.90;100143.84;5116241;28;1017;-58
2021/09/18 03:34:49;;;;;;;;;;;;;;;19.02;55.64;100144.25;5116342;28;796;-59
2021/09/18 03:37:15;;;;;;;;;;;;;;;19.29;57.31;100156.38;5121479;27;1028;-58
2021/09/18 03:39:41;;;;;;;;;;;;;;;19.51;58.78;100149.34;5136450;27;758;-58
2021/09/18 03:42:06;;;;;;;;;;;;;;;19.72;59.30;100145.00;5136749;27;1909;-56
2021/09/18 03:44:32;;;;;;;;;;;;;;;19.96;59.73;100144.78;5136733;27;758;-60
2021/09/18 03:46:57;;;;;;;;;;;;;;;20.11;60.16;100146.34;5136476;27;783;-58
2021/09/18 03:49:23;;;;;;;;;;;;;;;20.13;60.63;100148.78;5136798;27;751;-50
2021/09/18 03:51:48;;;;;;;;;;;;;;;20.31;60.63;100158.00;5129184;27;1011;-57
2021/09/18 03:54:14;;;;;;;;;;;;;;;20.37;60.88;100159.53;5115184;28;833;-57
2021/09/18 03:56:39;;;;;;;;;;;;;;;20.37;61.33;100167.81;5115950;28;716;-58
2021/09/18 03:59:04;;;;;;;;;;;;;;;20.43;60.99;100161.03;5141648;27;1350;-51
2021/09/18 04:01:30;;;;;;;;;;;;;;;20.15;59.60;100166.66;5137356;27;1973;-55
2021/09/18 04:03:55;;;;;;;;;;;;;;;20.00;56.94;100162.31;5157240;27;758;-60
2021/09/18 04:06:21;;;;;;;;;;;;;;;20.58;51.19;100161.75;5148969;27;928;-61
2021/09/18 04:08:47;;;;;;;;;;;;;;;20.20;47.83;100162.16;5118344;27;793;-60
2021/09/18 04:11:12;;;;;;;;;;;;;;;19.30;47.36;100156.09;5136960;27;1361;-65
2021/09/18 04:13:38;;;;;;;;;;;;;;;18.70;46.87;100148.66;5149574;27;798;-61
2021/09/18 04:16:06;;;;;;;;;;;;;;;19.01;49.10;100156.38;5135556;27;1188;-65
2021/09/18 04:18:31;;;;;;;;;;;;;;;19.35;52.89;100157.94;5152951;27;763;-59
2021/09/18 04:20:57;;;;;;;;;;;;;;;19.71;55.08;100159.91;5152162;27;1983;-59
2021/09/18 04:23:22;;;;;;;;;;;;;;;19.97;56.27;100156.63;5115300;27;996;-61
2021/09/18 04:25:48;;;;;;;;;;;;;;;20.16;57.36;100159.19;5115177;28;803;-58
2021/09/18 04:28:14;;;;;;;;;;;;;;;20.54;57.22;100153.31;5115652;28;806;-62
2021/09/18 04:30:39;;;;;;;;;;;;;;;20.44;59.30;100151.63;5115254;28;755;-62
2021/09/18 04:33:05;;;;;;;;;;;;;;;20.62;59.28;100166.34;5115001;28;806;-64
2021/09/18 04:35:30;;;;;;;;;;;;;;;20.76;59.28;100166.28;5114183;28;834;-63
2021/09/18 04:37:55;;;;;;;;;;;;;;;20.98;59.03;100170.94;5125536;27;973;-61
2021/09/18 04:40:21;;;;;;;;;;;;;;;21.12;58.88;100162.53;5135725;28;1910;-58
2021/09/18 04:42:46;;;;;;;;;;;;;;;21.15;58.28;100161.09;5134320;28;789;-59
2021/09/18 04:45:12;;;;;;;;;;;;;;;20.79;56.92;100165.66;5135405;27;802;-57
2021/09/18 04:47:38;;;;;;;;;;;;;;;20.15;54.48;100152.84;5135577;27;767;-61
2021/09/18 04:50:03;;;;;;;;;;;;;;;19.81;51.66;100151.44;5135971;27;786;-58
2021/09/18 04:52:29;;;;;;;;;;;;;;;19.36;49.14;100156.78;5121532;27;1019;-60
2021/09/18 04:54:55;;;;;;;;;;;;;;;19.09;47.45;100154.88;5115884;28;803;-58
2021/09/18 04:57:20;;;;;;;;;;;;;;;18.91;46.10;100149.13;5114899;28;731;-63
2021/09/18 04:59:51;;;;;;;;;;;;;;;19.22;48.55;100156.00;5114836;28;778;-60
2021/09/18 05:02:17;;;;;;;;;;;;;;;19.51;52.59;100152.91;5114990;28;1909;-57
2021/09/18 05:04:43;;;;;;;;;;;;;;;19.75;54.78;100155.41;5115292;28;818;-61
2021/09/18 05:07:11;;;;;;;;;;;;;;;19.91;56.36;100160.59;5113960;27;1011;-64
2021/09/18 05:09:36;;;;;;;;;;;;;;;20.38;56.41;100172.19;5115195;28;822;-62
2021/09/18 05:12:02;;;;;;;;;;;;;;;20.54;57.00;100169.88;5114853;28;818;-59
2021/09/18 05:14:27;;;;;;;;;;;;;;;20.74;57.50;100170.50;5115138;28;763;-64
2021/09/18 05:16:53;;;;;;;;;;;;;;;20.66;58.34;100172.03;5114607;28;1157;-62
2021/09/18 05:19:18;;;;;;;;;;;;;;;21.03;57.78;100183.81;5114926;28;755;-61
2021/09/18 05:21:44;;;;;;;;;;;;;;;21.08;58.21;100178.13;5114138;28;1913;-58
2021/09/18 05:24:09;;;;;;;;;;;;;;;21.20;58.09;100174.78;5114610;28;756;-61
2021/09/18 05:26:34;;;;;;;;;;;;;;;21.18;58.28;100177.88;5118504;28;962;-62
2021/09/18 05:29:00;;;;;;;;;;;;;;;20.79;56.86;100176.72;5134609;28;875;-62
2021/09/18 05:31:25;;;;;;;;;;;;;;;20.06;55.06;100181.53;5134588;27;854;-62
2021/09/18 05:33:51;;;;;;;;;;;;;;;19.67;52.03;100167.19;5137602;27;779;-60
2021/09/18 05:36:16;;;;;;;;;;;;;;;19.44;48.86;100167.09;5127347;27;926;-60
2021/09/18 05:38:42;;;;;;;;;;;;;;;19.33;46.51;100160.16;5100533;28;1133;-60
2021/09/18 05:41:07;;;;;;;;;;;;;;;19.08;47.26;100162.34;5097001;28;1914;-62
2021/09/18 05:43:33;;;;;;;;;;;;;;;19.36;50.30;100151.28;5099932;28;836;-62
2021/09/18 05:45:59;;;;;;;;;;;;;;;19.60;53.47;100159.34;5096938;28;874;-58
2021/09/18 05:48:24;;;;;;;;;;;;;;;19.91;55.48;100157.84;5111023;28;1103;-58
2021/09/18 05:50:49;;;;;;;;;;;;;;;20.12;56.63;100170.06;5120891;27;1090;-62
2021/09/18 05:53:15;;;;;;;;;;;;;;;20.37;56.96;100170.56;5116483;27;965;-59
2021/09/18 05:55:40;;;;;;;;;;;;;;;20.55;57.58;100176.19;5117340;28;751;-63
2021/09/18 05:58:06;;;;;;;;;;;;;;;20.59;58.23;100180.75;5117203;28;898;-59
2021/09/18 06:00:31;;;;;;;;;;;;;;;20.79;58.03;100182.25;5114328;28;1909;-59
2021/09/18 06:02:57;;;;;;;;;;;;;;;20.77;58.83;100176.19;5116879;28;763;-67
2021/09/18 06:05:22;;;;;;;;;;;;;;;21.13;58.18;100180.75;5109543;27;1416;-61
2021/09/18 06:07:47;;;;;;;;;;;;;;;21.29;57.77;100174.81;5118500;27;993;-62
2021/09/18 06:10:13;;;;;;;;;;;;;;;21.15;57.43;100177.69;5117140;27;956;-62
2021/09/18 06:12:38;;;;;;;;;;;;;;;20.43;55.78;100180.34;5117225;28;807;-62
2021/09/18 06:15:04;;;;;;;;;;;;;;;20.24;52.43;100179.72;5119042;27;1115;-63
2021/09/18 06:17:30;;;;;;;;;;;;;;;19.49;50.67;100180.78;5157972;27;858;-62
2021/09/18 06:19:55;;;;;;;;;;;;;;;19.30;47.92;100177.31;5158955;27;815;-64
2021/09/18 06:22:21;;;;;;;;;;;;;;;19.02;46.81;100182.81;5142525;27;1913;-62
2021/09/18 06:24:46;;;;;;;;;;;;;;;19.04;49.39;100185.28;5138250;27;791;-63
2021/09/18 06:27:11;;;;;;;;;;;;;;;19.39;52.84;100178.25;5137919;27;841;-63
2021/09/18 06:29:37;;;;;;;;;;;;;;;19.71;55.23;100176.47;5137392;27;811;-63
2021/09/18 06:32:07;;;;;;;;;;;;;;;20.18;55.91;100174.31;5137956;27;889;-63
2021/09/18 06:34:33;;;;;;;;;;;;;;;20.43;56.57;100180.34;5138105;27;833;-61
2021/09/18 06:36:59;;;;;;;;;;;;;;;20.60;57.34;100190.69;5137441;27;972;-62
2021/09/18 06:39:24;;;;;;;;;;;;;;;20.78;57.53;100188.88;5137631;27;858;-63
2021/09/18 06:41:50;;;;;;;;;;;;;;;21.03;57.42;100192.09;5167438;27;1916;-62
2021/09/18 06:44:15;;;;;;;;;;;;;;;20.95;58.33;100196.44;5176805;27;930;-64
2021/09/18 06:46:40;;;;;;;;;;;;;;;21.17;58.01;100179.00;5177548;27;727;-60
2021/09/18 06:49:06;;;;;;;;;;;;;;;21.17;58.14;100176.22;5178355;27;757;-52
2021/09/18 06:51:32;;;;;;;;;;;;;;;20.94;57.39;100174.66;5171322;27;983;-60
2021/09/18 06:53:57;;;;;;;;;;;;;;;20.46;54.89;100168.66;5157338;27;782;-61
2021/09/18 06:56:22;;;;;;;;;;;;;;;19.95;52.55;100167.97;5158466;27;735;-59
2021/09/18 06:58:48;;;;;;;;;;;;;;;19.64;49.62;100173.31;5157710;27;830;-62
2021/09/18 07:01:13;;;;;;;;;;;;;;;19.47;46.92;100171.19;5157724;27;1973;-62
2021/09/18 07:03:39;;;;;;;;;;;;;;;18.89;46.25;100167.09;5157880;27;742;-65
2021/09/18 07:06:04;;;;;;;;;;;;;;;18.65;48.50;100165.31;5156920;27;1000;-63
2021/09/18 07:08:33;;;;;;;;;;;;;;;19.27;51.50;100169.69;5158150;27;787;-62
2021/09/18 07:10:59;;;;;;;;;;;;;;;19.63;54.44;100171.69;5158323;27;533;-64
2021/09/18 07:13:24;;;;;;;;;;;;;;;19.80;56.15;100174.63;5157371;27;747;-63
2021/09/18 07:15:50;;;;;;;;;;;;;;;20.18;56.94;100173.50;5157708;27;1156;-66
2021/09/18 07:18:15;;;;;;;;;;;;;;;20.43;57.64;100179.53;5157635;27;778;-64
2021/09/18 07:20:41;;;;;;;;;;;;;;;20.51;58.00;100165.78;5156759;27;1971;-66
2021/09/18 07:23:06;;;;;;;;;;;;;;;20.77;58.08;100176.19;5157337;27;988;-65
2021/09/18 07:25:31;;;;;;;;;;;;;;;20.85;58.57;100174.63;5157564;27;755;-59
2021/09/18 07:27:57;;;;;;;;;;;;;;;20.96;58.66;100175.19;5157352;27;791;-62
2021/09/18 07:30:22;;;;;;;;;;;;;;;21.10;58.60;100164.81;5157325;27;866;-63
2021/09/18 07:32:48;;;;;;;;;;;;;;;21.06;58.04;100171.31;5156487;27;1084;-61
2021/09/18 07:35:14;;;;;;;;;;;;;;;20.57;56.59;100173.94;5157050;27;837;-63
2021/09/18 07:37:39;;;;;;;;;;;;;;;20.18;53.55;100170.75;5150983;27;1004;-62
2021/09/18 07:40:05;;;;;;;;;;;;;;;19.89;51.03;100166.44;5157324;27;885;-61
2021/09/18 07:42:31;;;;;;;;;;;;;;;19.42;49.30;100168.53;5156905;27;1976;-57
2021/09/18 07:44:56;;;;;;;;;;;;;;;19.16;47.35;100182.84;5157130;27;760;-60
2021/09/18 07:47:22;;;;;;;;;;;;;;;18.70;47.57;100175.41;5138538;27;950;-59
2021/09/18 07:49:47;;;;;;;;;;;;;;;19.00;51.89;100174.06;5157522;27;822;-66
2021/09/18 07:52:12;;;;;;;;;;;;;;;19.51;54.30;100171.41;5156529;27;993;-59
2021/09/18 07:54:38;;;;;;;;;;;;;;;19.79;56.21;100175.75;5157100;27;747;-60
2021/09/18 07:57:04;;;;;;;;;;;;;;;20.21;56.60;100175.63;5156559;27;791;-59
2021/09/18 07:59:29;;;;;;;;;;;;;;;20.35;57.45;100189.38;5156810;27;778;-59
2021/09/18 08:01:55;;;;;;;;;;;;;;;20.74;57.45;100174.06;5156728;27;1901;-60
2021/09/18 08:04:20;;;;;;;;;;;;;;;20.73;58.26;100177.16;5160578;27;1512;-59
2021/09/18 08:06:46;;;;;;;;;;;;;;;20.81;58.67;100184.69;5165241;27;862;-60
2021/09/18 08:09:11;;;;;;;;;;;;;;;21.02;58.45;100177.47;5156825;27;837;-59
2021/09/18 08:11:37;;;;;;;;;;;;;;;21.34;58.11;100169.13;5156839;27;829;-62
2021/09/18 08:14:03;;;;;;;;;;;;;;;21.28;57.81;100178.69;5156233;27;767;-56
2021/09/18 08:16:28;;;;;;;;;;;;;;;20.54;57.02;100174.56;5156848;27;1177;-59
2021/09/18 08:18:54;;;;;;;;;;;;;;;19.99;54.49;100170.91;5156934;27;798;-60
2021/09/18 08:21:20;;;;;;;;;;;;;;;19.71;51.88;100170.13;5137648;27;1914;-59
2021/09/18 08:23:45;;;;;;;;;;;;;;;19.25;49.80;100174.66;5156125;27;783;-59
2021/09/18 08:26:10;;;;;;;;;;;;;;;19.06;47.51;100166.50;5157118;27;778;-59
2021/09/18 08:28:36;;;;;;;;;;;;;;;19.09;46.68;100174.97;5156542;27;845;-59
2021/09/18 08:31:01;;;;;;;;;;;;;;;19.24;50.49;100176.63;5156633;27;790;-57
2021/09/18 08:33:27;;;;;;;;;;;;;;;19.57;54.14;100168.22;5156426;27;795;-62
2021/09/18 08:35:53;;;;;;;;;;;;;;;19.95;56.34;100179.00;5156062;27;842;-62
2021/09/18 08:38:19;;;;;;;;;;;;;;;20.38;57.40;100183.22;5156283;27;1137;-62
2021/09/18 08:40:45;;;;;;;;;;;;;;;20.77;57.58;100184.47;5156925;27;1972;-62
2021/09/18 08:43:11;;;;;;;;;;;;;;;20.93;58.18;100182.16;5156349;27;767;-60
2021/09/18 08:45:36;;;;;;;;;;;;;;;20.88;59.20;100181.47;5138011;27;747;-62
2021/09/18 08:48:03;;;;;;;;;;;;;;;21.09;59.11;100184.50;5156891;27;811;-60
2021/09/18 08:50:28;;;;;;;;;;;;;;;21.27;58.38;100179.84;5155980;27;818;-59
2021/09/18 08:52:54;;;;;;;;;;;;;;;20.76;57.38;100187.56;5156253;27;961;-61
2021/09/18 08:55:19;;;;;;;;;;;;;;;20.21;54.68;100183.13;5156134;27;862;-60
2021/09/18 08:57:45;;;;;;;;;;;;;;;19.66;51.86;100171.88;5156101;27;814;-61
2021/09/18 09:00:31;;;;;;;;;;;;;;;19.40;49.56;100171.59;5156567;27;795;-60
2021/09/18 09:02:57;;;;;;;;;;;;;;;19.00;47.66;100168.56;5142048;27;1170;-59
2021/09/18 09:05:29;;;;;;;;;;;;;;;19.22;47.10;100169.78;5157215;27;1484;-66
2021/09/18 09:08:04;;;;;;;;;;;;;;;19.31;51.69;100167.94;5155270;27;992;-63
2021/09/18 09:10:30;;;;;;;;;;;;;;;19.97;54.49;100167.66;5160240;27;739;-60
2021/09/18 09:12:56;;;;;;;;;;;;;;;20.27;56.79;100162.53;5160193;27;763;-65
2021/09/18 09:15:21;;;;;;;;;;;;;;;20.61;57.40;100152.84;5141398;27;1285;-61
2021/09/18 09:17:51;;;;;;;;;;;;;;;20.85;58.25;100147.78;5169446;27;902;-66
2021/09/18 09:20:27;;;;;;;;;;;;;;;21.07;58.81;100150.81;5180665;27;830;-60
2021/09/18 09:22:53;;;;;;;;;;;;;;;21.32;58.66;100158.41;5142075;27;1588;-59
2021/09/18 09:25:31;;;;;;;;;;;;;;;21.36;58.62;100150.25;5159661;27;810;-61
2021/09/18 09:27:57;;;;;;;;;;;;;;;20.94;57.06;100141.50;5159559;27;810;-60
2021/09/18 09:30:30;;;;;;;;;;;;;;;20.32;54.38;100129.28;5141253;27;933;-58
2021/09/18 09:32:55;;;;;;;;;;;;;;;19.91;51.33;100128.31;5159903;27;874;-54
2021/09/18 09:35:20;;;;;;;;;;;;;;;19.56;49.02;100121.63;5159198;27;1399;-62
2021/09/18 09:37:52;;;;;;;;;;;;;;;19.34;46.89;100117.69;5159685;27;902;-62
2021/09/18 09:40:18;;;;;;;;;;;;;;;19.05;46.61;100118.84;5159625;27;786;-59
2021/09/18 09:42:44;;;;;;;;;;;;;;;18.94;48.71;100121.00;5141409;27;1913;-59
2021/09/18 09:45:12;;;;;;;;;;;;;;;19.43;53.90;100115.88;5159649;27;750;-60
2021/09/18 09:47:38;;;;;;;;;;;;;;;20.01;56.83;100119.00;5159772;27;771;-62
2021/09/18 09:50:03;;;;;;;;;;;;;;;20.38;58.53;100116.16;5141662;27;750;-61
2021/09/18 09:52:30;;;;;;;;;;;;;;;20.97;58.34;100121.50;5158991;27;961;-63
2021/09/18 09:54:58;;;;;;;;;;;;;;;21.32;58.88;100110.56;5160346;27;788;-60
2021/09/18 09:57:23;;;;;;;;;;;;;;;21.42;59.46;100110.25;5158803;27;841;-62
2021/09/18 09:59:49;;;;;;;;;;;;;;;21.35;59.02;100102.44;5159496;27;803;-59
2021/09/18 10:02:14;;;;;;;;;;;;;;;21.10;57.54;100117.81;5141076;27;1966;-59
2021/09/18 10:04:40;;;;;;;;;;;;;;;20.70;56.40;100104.00;5159699;27;779;-60
2021/09/18 10:07:09;;;;;;;;;;;;;;;20.19;55.42;100108.91;5158262;27;937;-58
2021/09/18 10:09:35;;;;;;;;;;;;;;;20.24;53.62;100116.22;5159621;27;723;-60
2021/09/18 10:12:01;;;;;;;;;;;;;;;19.74;53.57;100120.69;5158985;27;790;-58
2021/09/18 10:14:27;;;;;;;;;;;;;;;19.65;52.74;100114.28;5159637;27;754;-59
2021/09/18 10:16:58;;;;;;;;;;;;;;;19.53;52.09;100120.34;5159057;27;1208;-59
2021/09/18 10:25:11;;;;;;;;;;;;;;;19.28;51.35;100088.63;5159200;27;758;-59
2021/09/18 10:27:37;;;;;;;;;;;;;;;19.22;51.22;100098.91;5158724;27;793;-57
2021/09/18 10:30:02;;;;;;;;;;;;;;;19.35;51.49;100107.47;5159024;27;787;-59
2021/09/18 10:32:31;;;;;;;;;;;;;;;19.45;53.07;100110.03;5158609;27;850;-59
2021/09/18 10:35:12;;;;;;;;;;;;;;;19.53;54.67;100114.00;5139931;27;1154;-60
2021/09/18 10:37:38;;;;;;;;;;;;;;;19.86;55.94;100122.13;5157281;27;890;-58
2021/09/18 10:40:07;;;;;;;;;;;;;;;20.00;56.76;100109.06;5158781;27;739;-56
2021/09/18 10:42:34;;;;;;;;;;;;;;;19.99;57.49;100110.19;5158856;27;1983;-59
2021/09/18 10:44:59;;;;;;;;;;;;;;;20.17;57.63;100111.97;5158211;27;743;-59
2021/09/18 10:47:37;;;;;;;;;;;;;;;20.22;57.82;100101.94;5158778;27;775;-59
2021/09/18 10:50:07;;;;;;;;;;;;;;;20.28;58.15;100111.72;5158589;27;751;-59
2021/09/18 10:52:37;;;;;;;;;;;;;;;20.61;57.61;100103.13;5139448;27;1379;-59
2021/09/18 10:55:05;;;;;;;;;;;;;;;20.52;58.05;100092.03;5158382;27;835;-58
2021/09/18 10:57:41;;;;;;;;;;;;;;;20.66;57.83;100097.44;5156469;27;965;-56
2021/09/18 11:00:06;;;;;;;;;;;;;;;20.76;57.57;100093.63;5157576;27;874;-57
2021/09/18 11:02:35;;;;;;;;;;;;;;;20.85;57.46;100097.25;5157575;27;1984;-57
2021/09/18 11:05:00;;;;;;;;;;;;;;;20.60;57.47;100095.97;5157728;27;743;-58
2021/09/18 11:07:41;;;;;;;;;;;;;;;20.14;55.94;100084.97;5157421;27;968;-50
2021/09/18 11:10:10;;;;;;;;;;;;;;;20.00;53.23;100084.22;5157514;27;874;-59
2021/09/18 11:12:35;;;;;;;;;;;;;;;19.70;51.47;100092.09;5157507;27;735;-52
2021/09/18 11:15:01;;;;;;;;;;;;;;;19.51;49.81;100088.69;5157577;27;1051;-53
2021/09/18 11:17:30;;;;;;;;;;;;;;;19.38;48.69;100102.19;5156652;27;791;-58
2021/09/18 11:19:56;;;;;;;;;;;;;;;19.28;48.98;100107.91;5157276;27;798;-59
2021/09/18 11:22:21;;;;;;;;;;;;;;;19.22;49.27;100109.13;5138422;27;1913;-57
2021/09/18 11:24:46;;;;;;;;;;;;;;;19.32;49.98;100106.16;5157159;27;853;-52
2021/09/18 11:27:14;;;;;;;;;;;;;;;19.27;50.76;100100.78;5156952;27;874;-54
2021/09/18 11:29:44;;;;;;;;;;;;;;;19.16;51.51;100089.13;5138106;27;1277;-55
2021/09/18 11:32:10;;;;;;;;;;;;;;;19.30;51.58;100097.38;5156371;27;783;-52
2021/09/18 11:34:54;;;;;;;;;;;;;;;19.20;51.98;100090.16;5157488;27;770;-56
2021/09/18 11:37:20;;;;;;;;;;;;;;;19.09;52.15;100089.53;5156050;27;992;-60
2021/09/18 11:39:58;;;;;;;;;;;;;;;19.06;52.24;100095.66;5156840;27;758;-56
2021/09/18 11:42:24;;;;;;;;;;;;;;;19.12;52.15;100094.44;5157280;27;1909;-61
2021/09/18 11:44:51;;;;;;;;;;;;;;;19.03;52.44;100096.28;5157268;27;533;-56
2021/09/18 11:47:27;;;;;;;;;;;;;;;19.08;53.66;100087.94;5155946;27;767;-59
2021/09/18 11:49:52;;;;;;;;;;;;;;;19.36;54.51;100093.38;5156611;27;763;-54
2021/09/18 11:52:18;;;;;;;;;;;;;;;19.70;55.42;100089.34;5156569;27;1020;-60
2021/09/18 11:54:43;;;;;;;;;;;;;;;19.93;56.03;100100.41;5156812;27;750;-56
2021/09/18 11:57:12;;;;;;;;;;;;;;;20.10;56.54;100092.25;5157201;27;1541;-58
2021/09/18 11:59:38;;;;;;;;;;;;;;;20.25;56.98;100095.78;5169875;27;766;-59
2021/09/18 12:02:03;;;;;;;;;;;;;;;20.16;57.56;100092.94;5177184;27;1913;-53
2021/09/18 12:04:42;;;;;;;;;;;;;;;20.55;56.91;100101.63;5159221;27;822;-55
2021/09/18 12:07:08;;;;;;;;;;;;;;;20.64;57.05;100088.69;5166121;27;968;-50
2021/09/18 12:09:34;;;;;;;;;;;;;;;20.73;57.18;100080.47;5156214;27;853;-56
2021/09/18 12:11:59;;;;;;;;;;;;;;;20.91;56.92;100087.66;5156950;27;776;-53
2021/09/18 12:14:31;;;;;;;;;;;;;;;20.83;57.39;100083.75;5137986;27;790;-57
2021/09/18 12:16:57;;;;;;;;;;;;;;;21.18;56.65;100078.34;5156073;27;1042;-63
2021/09/18 12:19:23;;;;;;;;;;;;;;;21.01;56.99;100081.03;5156347;27;779;-53
2021/09/18 12:21:48;;;;;;;;;;;;;;;20.83;56.13;100082.94;5137024;27;1922;-56
2021/09/18 12:24:14;;;;;;;;;;;;;;;20.09;54.79;100085.13;5138049;27;862;-57
2021/09/18 12:26:40;;;;;;;;;;;;;;;19.64;52.57;100076.78;5137484;27;1338;-54
2021/09/18 12:29:06;;;;;;;;;;;;;;;19.39;50.20;100070.72;5156303;27;774;-52
2021/09/18 12:31:31;;;;;;;;;;;;;;;18.92;48.87;100067.31;5155880;27;807;-55
2021/09/18 12:34:04;;;;;;;;;;;;;;;18.77;47.43;100055.44;5156875;27;770;-61
2021/09/18 12:36:30;;;;;;;;;;;;;;;19.06;47.89;100056.28;5155727;27;1005;-52
2021/09/18 12:38:56;;;;;;;;;;;;;;;19.46;52.86;100062.84;5137156;27;1154;-56
2021/09/18 12:41:22;;;;;;;;;;;;;;;20.05;55.51;100069.50;5156235;27;1910;-60
2021/09/18 12:43:54;;;;;;;;;;;;;;;20.56;57.02;100068.16;5160522;27;815;-60
2021/09/18 12:46:20;;;;;;;;;;;;;;;21.11;57.42;100072.47;5160636;27;846;-45
2021/09/18 12:48:54;;;;;;;;;;;;;;;21.18;58.66;100061.75;5160454;27;739;-48
2021/09/18 12:51:20;;;;;;;;;;;;;;;21.30;59.14;100076.88;5159578;27;980;-59
2021/09/18 12:53:47;;;;;;;;;;;;;;;21.40;59.29;100073.81;5159978;27;842;-60
2021/09/18 12:56:12;;;;;;;;;;;;;;;20.96;58.39;100081.22;5160209;27;806;-58